sensor_id;sensor_type;location;lat;lon;timestamp;P1;durP1;ratioP1;P2;durP2;ratioP2
55222;SDS011;41090;48.632;12.428;2022-09-17T00:00:35;6.53;;;4.20;;
55222;SDS011;41090;48.632;12.428;2022-09-17T00:03:01;6.13;;;4.43;;
55222;SDS011;41090;48.632;12.428;2022-09-17T00:05:26;4.67;;;4.27;;
55222;SDS011;41090;48.632;12.428;2022-09-17T00:07:51;4.63;;;4.23;;
55222;SDS011;41090;48.632;12.428;2022-09-17T00:10:17;5.30;;;4.50;;
55222;SDS011;41090;48.632;12.428;2022-09-17T00:12:43;5.27;;;4.77;;
55222;SDS011;41090;48.632;12.428;2022-09-17T00:15:11;4.70;;;4.20;;
55222;SDS011;41090;48.632;12.428;2022-09-17T00:17:36;5.33;;;4.30;;
55222;SDS011;41090;48.632;12.428;2022-09-17T00:20:03;5.37;;;4.00;;
55222;SDS011;41090;48.632;12.428;2022-09-17T00:22:29;4.30;;;4.00;;
55222;SDS011;41090;48.632;12.428;2022-09-17T00:25:01;4.87;;;3.77;;
55222;SDS011;41090;48.632;12.428;2022-09-17T00:27:27;6.07;;;4.40;;
55222;SDS011;41090;48.632;12.428;2022-09-17T00:29:52;4.33;;;3.93;;
55222;SDS011;41090;48.632;12.428;2022-09-17T00:32:17;4.60;;;4.20;;
55222;SDS011;41090;48.632;12.428;2022-09-17T00:34:42;4.00;;;3.60;;
55222;SDS011;41090;48.632;12.428;2022-09-17T00:37:08;5.03;;;4.10;;
55222;SDS011;41090;48.632;12.428;2022-09-17T00:39:33;4.17;;;3.70;;
55222;SDS011;41090;48.632;12.428;2022-09-17T00:41:59;4.93;;;3.80;;
55222;SDS011;41090;48.632;12.428;2022-09-17T00:47:24;4.63;;;3.30;;
55222;SDS011;41090;48.632;12.428;2022-09-17T00:49:55;5.20;;;3.50;;
55222;SDS011;41090;48.632;12.428;2022-09-17T00:52:26;4.53;;;3.00;;
55222;SDS011;41090;48.632;12.428;2022-09-17T00:54:57;4.63;;;3.20;;
55222;SDS011;41090;48.632;12.428;2022-09-17T00:57:24;3.93;;;3.40;;
55222;SDS011;41090;48.632;12.428;2022-09-17T00:59:50;3.33;;;3.00;;
55222;SDS011;41090;48.632;12.428;2022-09-17T01:02:15;3.33;;;2.90;;
55222;SDS011;41090;48.632;12.428;2022-09-17T01:04:41;4.07;;;2.90;;
55222;SDS011;41090;48.632;12.428;2022-09-17T01:12:07;3.20;;;3.00;;
55222;SDS011;41090;48.632;12.428;2022-09-17T01:17:10;3.00;;;2.73;;
55222;SDS011;41090;48.632;12.428;2022-09-17T01:22:39;3.30;;;2.97;;
55222;SDS011;41090;48.632;12.428;2022-09-17T01:40:54;4.07;;;2.50;;
55222;SDS011;41090;48.632;12.428;2022-09-17T01:43:29;2.87;;;2.57;;
55222;SDS011;41090;48.632;12.428;2022-09-17T01:46:02;2.93;;;2.50;;
55222;SDS011;41090;48.632;12.428;2022-09-17T01:48:32;4.40;;;2.50;;
55222;SDS011;41090;48.632;12.428;2022-09-17T01:51:09;2.60;;;2.40;;
55222;SDS011;41090;48.632;12.428;2022-09-17T01:56:09;4.33;;;2.20;;
55222;SDS011;41090;48.632;12.428;2022-09-17T01:58:39;4.37;;;2.30;;
55222;SDS011;41090;48.632;12.428;2022-09-17T02:01:06;3.07;;;2.40;;
55222;SDS011;41090;48.632;12.428;2022-09-17T02:03:35;3.43;;;2.20;;
55222;SDS011;41090;48.632;12.428;2022-09-17T02:06:11;3.13;;;2.10;;
55222;SDS011;41090;48.632;12.428;2022-09-17T02:08:40;3.33;;;2.20;;
55222;SDS011;41090;48.632;12.428;2022-09-17T02:11:08;2.30;;;2.07;;
55222;SDS011;41090;48.632;12.428;2022-09-17T02:13:37;3.50;;;2.10;;
55222;SDS011;41090;48.632;12.428;2022-09-17T02:16:06;2.57;;;1.93;;
55222;SDS011;41090;48.632;12.428;2022-09-17T02:18:38;2.47;;;2.20;;
55222;SDS011;41090;48.632;12.428;2022-09-17T02:21:06;4.77;;;2.27;;
55222;SDS011;41090;48.632;12.428;2022-09-17T02:23:34;2.63;;;2.30;;
55222;SDS011;41090;48.632;12.428;2022-09-17T02:26:05;2.60;;;2.40;;
55222;SDS011;41090;48.632;12.428;2022-09-17T02:31:03;3.00;;;2.10;;
55222;SDS011;41090;48.632;12.428;2022-09-17T02:33:29;4.00;;;2.20;;
55222;SDS011;41090;48.632;12.428;2022-09-17T02:35:54;2.63;;;2.10;;
55222;SDS011;41090;48.632;12.428;2022-09-17T02:38:20;2.40;;;2.20;;
55222;SDS011;41090;48.632;12.428;2022-09-17T02:40:50;2.43;;;2.23;;
55222;SDS011;41090;48.632;12.428;2022-09-17T02:46:09;3.07;;;2.30;;
55222;SDS011;41090;48.632;12.428;2022-09-17T02:59:54;3.40;;;2.40;;
55222;SDS011;41090;48.632;12.428;2022-09-17T03:02:41;3.00;;;2.30;;
55222;SDS011;41090;48.632;12.428;2022-09-17T03:05:11;2.30;;;2.10;;
55222;SDS011;41090;48.632;12.428;2022-09-17T03:07:36;3.13;;;2.37;;
55222;SDS011;41090;48.632;12.428;2022-09-17T03:10:03;2.40;;;2.20;;
55222;SDS011;41090;48.632;12.428;2022-09-17T03:12:28;3.13;;;2.13;;
55222;SDS011;41090;48.632;12.428;2022-09-17T03:14:53;2.93;;;2.00;;
55222;SDS011;41090;48.632;12.428;2022-09-17T03:17:19;3.03;;;2.30;;
55222;SDS011;41090;48.632;12.428;2022-09-17T03:19:44;2.40;;;2.03;;
55222;SDS011;41090;48.632;12.428;2022-09-17T03:22:09;3.13;;;2.83;;
55222;SDS011;41090;48.632;12.428;2022-09-17T03:24:35;2.47;;;2.00;;
55222;SDS011;41090;48.632;12.428;2022-09-17T03:27:00;2.60;;;2.07;;
55222;SDS011;41090;48.632;12.428;2022-09-17T03:29:25;3.83;;;2.20;;
55222;SDS011;41090;48.632;12.428;2022-09-17T03:31:50;2.80;;;2.20;;
55222;SDS011;41090;48.632;12.428;2022-09-17T03:34:16;5.00;;;2.30;;
55222;SDS011;41090;48.632;12.428;2022-09-17T03:36:41;3.23;;;2.13;;
55222;SDS011;41090;48.632;12.428;2022-09-17T03:39:07;4.30;;;2.30;;
55222;SDS011;41090;48.632;12.428;2022-09-17T03:41:32;4.23;;;2.40;;
55222;SDS011;41090;48.632;12.428;2022-09-17T03:43:57;5.93;;;2.97;;
55222;SDS011;41090;48.632;12.428;2022-09-17T03:46:22;5.77;;;2.83;;
55222;SDS011;41090;48.632;12.428;2022-09-17T03:48:48;3.40;;;2.77;;
55222;SDS011;41090;48.632;12.428;2022-09-17T03:51:13;4.37;;;2.87;;
55222;SDS011;41090;48.632;12.428;2022-09-17T03:53:38;3.20;;;2.90;;
55222;SDS011;41090;48.632;12.428;2022-09-17T03:56:05;5.53;;;3.30;;
55222;SDS011;41090;48.632;12.428;2022-09-17T03:58:31;3.67;;;3.17;;
55222;SDS011;41090;48.632;12.428;2022-09-17T04:00:56;4.23;;;3.27;;
55222;SDS011;41090;48.632;12.428;2022-09-17T04:03:27;3.50;;;3.20;;
55222;SDS011;41090;48.632;12.428;2022-09-17T04:05:53;3.87;;;3.50;;
55222;SDS011;41090;48.632;12.428;2022-09-17T04:08:19;4.07;;;3.67;;
55222;SDS011;41090;48.632;12.428;2022-09-17T04:10:44;4.00;;;3.30;;
55222;SDS011;41090;48.632;12.428;2022-09-17T04:13:10;4.30;;;3.80;;
55222;SDS011;41090;48.632;12.428;2022-09-17T04:15:35;5.27;;;4.43;;
55222;SDS011;41090;48.632;12.428;2022-09-17T04:18:00;4.40;;;4.00;;
55222;SDS011;41090;48.632;12.428;2022-09-17T04:20:27;5.23;;;3.97;;
55222;SDS011;41090;48.632;12.428;2022-09-17T04:22:52;4.43;;;4.03;;
55222;SDS011;41090;48.632;12.428;2022-09-17T04:25:19;4.80;;;4.30;;
55222;SDS011;41090;48.632;12.428;2022-09-17T04:27:44;4.57;;;4.17;;
55222;SDS011;41090;48.632;12.428;2022-09-17T04:30:11;4.80;;;4.20;;
55222;SDS011;41090;48.632;12.428;2022-09-17T04:32:39;5.27;;;3.93;;
55222;SDS011;41090;48.632;12.428;2022-09-17T04:35:04;5.03;;;4.10;;
55222;SDS011;41090;48.632;12.428;2022-09-17T04:37:29;5.33;;;4.33;;
55222;SDS011;41090;48.632;12.428;2022-09-17T04:39:55;4.37;;;3.80;;
55222;SDS011;41090;48.632;12.428;2022-09-17T04:42:20;4.17;;;3.77;;
55222;SDS011;41090;48.632;12.428;2022-09-17T04:44:45;4.73;;;4.20;;
55222;SDS011;41090;48.632;12.428;2022-09-17T04:47:11;4.23;;;3.90;;
55222;SDS011;41090;48.632;12.428;2022-09-17T04:49:36;5.53;;;3.97;;
55222;SDS011;41090;48.632;12.428;2022-09-17T04:52:01;5.30;;;4.00;;
55222;SDS011;41090;48.632;12.428;2022-09-17T04:54:26;5.63;;;3.90;;
55222;SDS011;41090;48.632;12.428;2022-09-17T04:56:52;5.60;;;4.40;;
55222;SDS011;41090;48.632;12.428;2022-09-17T04:59:17;6.43;;;4.47;;
55222;SDS011;41090;48.632;12.428;2022-09-17T05:01:42;5.00;;;3.90;;
55222;SDS011;41090;48.632;12.428;2022-09-17T05:04:08;5.73;;;4.23;;
55222;SDS011;41090;48.632;12.428;2022-09-17T05:06:34;6.50;;;3.77;;
55222;SDS011;41090;48.632;12.428;2022-09-17T05:08:59;4.67;;;3.80;;
55222;SDS011;41090;48.632;12.428;2022-09-17T05:11:24;4.73;;;3.80;;
55222;SDS011;41090;48.632;12.428;2022-09-17T05:13:50;5.93;;;3.70;;
55222;SDS011;41090;48.632;12.428;2022-09-17T05:16:15;4.60;;;4.20;;
55222;SDS011;41090;48.632;12.428;2022-09-17T05:18:40;4.63;;;3.70;;
55222;SDS011;41090;48.632;12.428;2022-09-17T05:21:06;5.70;;;3.67;;
55222;SDS011;41090;48.632;12.428;2022-09-17T05:23:31;4.97;;;3.67;;
55222;SDS011;41090;48.632;12.428;2022-09-17T05:25:57;3.63;;;3.33;;
55222;SDS011;41090;48.632;12.428;2022-09-17T05:28:24;5.30;;;3.30;;
55222;SDS011;41090;48.632;12.428;2022-09-17T05:30:49;4.77;;;3.50;;
55222;SDS011;41090;48.632;12.428;2022-09-17T05:33:14;9.00;;;3.40;;
55222;SDS011;41090;48.632;12.428;2022-09-17T05:35:40;5.73;;;3.60;;
55222;SDS011;41090;48.632;12.428;2022-09-17T05:38:07;7.40;;;3.70;;
55222;SDS011;41090;48.632;12.428;2022-09-17T05:40:32;7.50;;;3.40;;
55222;SDS011;41090;48.632;12.428;2022-09-17T05:42:58;3.73;;;3.30;;
55222;SDS011;41090;48.632;12.428;2022-09-17T05:45:24;6.60;;;3.53;;
55222;SDS011;41090;48.632;12.428;2022-09-17T05:47:54;6.30;;;3.23;;
55222;SDS011;41090;48.632;12.428;2022-09-17T05:50:19;4.03;;;3.07;;
55222;SDS011;41090;48.632;12.428;2022-09-17T05:52:44;6.63;;;3.87;;
55222;SDS011;41090;48.632;12.428;2022-09-17T05:55:09;5.67;;;3.30;;
55222;SDS011;41090;48.632;12.428;2022-09-17T05:57:36;7.53;;;3.03;;
55222;SDS011;41090;48.632;12.428;2022-09-17T06:00:02;4.00;;;3.20;;
55222;SDS011;41090;48.632;12.428;2022-09-17T06:02:28;4.57;;;2.97;;
55222;SDS011;41090;48.632;12.428;2022-09-17T06:04:53;5.37;;;3.03;;
55222;SDS011;41090;48.632;12.428;2022-09-17T06:07:18;3.50;;;3.20;;
55222;SDS011;41090;48.632;12.428;2022-09-17T06:09:43;6.83;;;3.10;;
55222;SDS011;41090;48.632;12.428;2022-09-17T06:12:09;5.03;;;3.07;;
55222;SDS011;41090;48.632;12.428;2022-09-17T06:14:34;4.83;;;3.53;;
55222;SDS011;41090;48.632;12.428;2022-09-17T06:16:59;6.43;;;3.40;;
55222;SDS011;41090;48.632;12.428;2022-09-17T06:19:24;4.57;;;3.40;;
55222;SDS011;41090;48.632;12.428;2022-09-17T06:21:50;3.87;;;3.10;;
55222;SDS011;41090;48.632;12.428;2022-09-17T06:24:15;6.63;;;3.40;;
55222;SDS011;41090;48.632;12.428;2022-09-17T06:26:40;6.33;;;3.27;;
55222;SDS011;41090;48.632;12.428;2022-09-17T06:29:06;6.93;;;3.00;;
55222;SDS011;41090;48.632;12.428;2022-09-17T06:31:31;4.20;;;3.40;;
55222;SDS011;41090;48.632;12.428;2022-09-17T06:33:59;5.80;;;3.33;;
55222;SDS011;41090;48.632;12.428;2022-09-17T06:36:25;5.00;;;3.63;;
55222;SDS011;41090;48.632;12.428;2022-09-17T06:38:53;4.90;;;3.40;;
55222;SDS011;41090;48.632;12.428;2022-09-17T06:41:20;4.07;;;3.20;;
55222;SDS011;41090;48.632;12.428;2022-09-17T06:43:45;6.30;;;2.67;;
55222;SDS011;41090;48.632;12.428;2022-09-17T06:46:11;5.67;;;3.10;;
55222;SDS011;41090;48.632;12.428;2022-09-17T06:48:36;4.10;;;2.87;;
55222;SDS011;41090;48.632;12.428;2022-09-17T06:51:03;4.10;;;2.53;;
55222;SDS011;41090;48.632;12.428;2022-09-17T06:53:29;5.77;;;3.17;;
55222;SDS011;41090;48.632;12.428;2022-09-17T06:55:55;4.70;;;2.80;;
55222;SDS011;41090;48.632;12.428;2022-09-17T06:58:20;4.97;;;2.93;;
55222;SDS011;41090;48.632;12.428;2022-09-17T07:00:46;5.33;;;2.83;;
55222;SDS011;41090;48.632;12.428;2022-09-17T07:03:11;4.70;;;2.77;;
55222;SDS011;41090;48.632;12.428;2022-09-17T07:05:37;6.07;;;3.10;;
55222;SDS011;41090;48.632;12.428;2022-09-17T07:08:02;4.23;;;2.40;;
55222;SDS011;41090;48.632;12.428;2022-09-17T07:10:28;3.83;;;2.73;;
55222;SDS011;41090;48.632;12.428;2022-09-17T07:12:53;4.83;;;2.60;;
55222;SDS011;41090;48.632;12.428;2022-09-17T07:15:18;4.27;;;2.63;;
55222;SDS011;41090;48.632;12.428;2022-09-17T07:17:44;5.40;;;2.90;;
55222;SDS011;41090;48.632;12.428;2022-09-17T07:20:10;3.93;;;2.50;;
55222;SDS011;41090;48.632;12.428;2022-09-17T07:22:35;6.40;;;2.53;;
55222;SDS011;41090;48.632;12.428;2022-09-17T07:25:01;8.13;;;2.90;;
55222;SDS011;41090;48.632;12.428;2022-09-17T07:27:30;7.53;;;2.37;;
55222;SDS011;41090;48.632;12.428;2022-09-17T07:29:55;8.33;;;2.50;;
55222;SDS011;41090;48.632;12.428;2022-09-17T07:32:21;6.47;;;2.60;;
55222;SDS011;41090;48.632;12.428;2022-09-17T07:34:46;5.53;;;2.40;;
55222;SDS011;41090;48.632;12.428;2022-09-17T07:37:13;6.87;;;2.40;;
55222;SDS011;41090;48.632;12.428;2022-09-17T07:39:38;6.67;;;2.67;;
55222;SDS011;41090;48.632;12.428;2022-09-17T07:42:03;7.97;;;2.30;;
55222;SDS011;41090;48.632;12.428;2022-09-17T07:44:29;6.00;;;2.40;;
55222;SDS011;41090;48.632;12.428;2022-09-17T07:46:55;4.43;;;2.13;;
55222;SDS011;41090;48.632;12.428;2022-09-17T07:49:20;4.77;;;2.40;;
55222;SDS011;41090;48.632;12.428;2022-09-17T07:51:46;5.53;;;2.53;;
55222;SDS011;41090;48.632;12.428;2022-09-17T07:54:11;7.77;;;2.40;;
55222;SDS011;41090;48.632;12.428;2022-09-17T07:56:36;4.60;;;2.17;;
55222;SDS011;41090;48.632;12.428;2022-09-17T07:59:02;9.73;;;2.37;;
55222;SDS011;41090;48.632;12.428;2022-09-17T08:01:27;6.00;;;2.60;;
55222;SDS011;41090;48.632;12.428;2022-09-17T08:03:53;7.00;;;2.23;;
55222;SDS011;41090;48.632;12.428;2022-09-17T08:06:20;9.77;;;2.33;;
55222;SDS011;41090;48.632;12.428;2022-09-17T08:08:45;3.63;;;2.20;;
55222;SDS011;41090;48.632;12.428;2022-09-17T08:11:12;6.20;;;2.30;;
55222;SDS011;41090;48.632;12.428;2022-09-17T08:13:38;5.13;;;2.00;;
55222;SDS011;41090;48.632;12.428;2022-09-17T08:16:04;3.23;;;1.97;;
55222;SDS011;41090;48.632;12.428;2022-09-17T08:18:29;5.10;;;2.10;;
55222;SDS011;41090;48.632;12.428;2022-09-17T08:20:55;3.00;;;1.90;;
55222;SDS011;41090;48.632;12.428;2022-09-17T08:23:20;6.13;;;1.93;;
55222;SDS011;41090;48.632;12.428;2022-09-17T08:25:50;4.07;;;2.50;;
55222;SDS011;41090;48.632;12.428;2022-09-17T08:28:15;5.90;;;2.33;;
55222;SDS011;41090;48.632;12.428;2022-09-17T08:30:41;4.67;;;2.00;;
55222;SDS011;41090;48.632;12.428;2022-09-17T08:33:06;3.70;;;2.00;;
55222;SDS011;41090;48.632;12.428;2022-09-17T08:35:31;4.40;;;2.30;;
55222;SDS011;41090;48.632;12.428;2022-09-17T08:38:00;3.60;;;1.90;;
55222;SDS011;41090;48.632;12.428;2022-09-17T08:40:28;3.03;;;1.90;;
55222;SDS011;41090;48.632;12.428;2022-09-17T08:42:54;2.80;;;1.97;;
55222;SDS011;41090;48.632;12.428;2022-09-17T08:45:24;2.97;;;2.13;;
55222;SDS011;41090;48.632;12.428;2022-09-17T08:47:50;4.70;;;2.13;;
55222;SDS011;41090;48.632;12.428;2022-09-17T08:50:23;3.83;;;1.97;;
55222;SDS011;41090;48.632;12.428;2022-09-17T09:00:23;2.90;;;2.30;;
55222;SDS011;41090;48.632;12.428;2022-09-17T09:05:48;3.03;;;1.97;;
55222;SDS011;41090;48.632;12.428;2022-09-17T09:08:17;3.57;;;2.57;;
55222;SDS011;41090;48.632;12.428;2022-09-17T09:10:48;3.77;;;2.40;;
55222;SDS011;41090;48.632;12.428;2022-09-17T09:13:17;3.37;;;2.00;;
55222;SDS011;41090;48.632;12.428;2022-09-17T09:15:44;4.03;;;2.30;;
55222;SDS011;41090;48.632;12.428;2022-09-17T09:26:21;2.07;;;1.87;;
55222;SDS011;41090;48.632;12.428;2022-09-17T09:31:40;3.43;;;2.30;;
55222;SDS011;41090;48.632;12.428;2022-09-17T09:34:01;4.27;;;2.40;;
55222;SDS011;41090;48.632;12.428;2022-09-17T09:39:28;2.77;;;1.80;;
55222;SDS011;41090;48.632;12.428;2022-09-17T09:44:40;2.20;;;1.53;;
55222;SDS011;41090;48.632;12.428;2022-09-17T09:47:09;4.90;;;1.80;;
55222;SDS011;41090;48.632;12.428;2022-09-17T09:57:46;3.07;;;1.60;;
55222;SDS011;41090;48.632;12.428;2022-09-17T10:05:55;1.97;;;1.60;;
55222;SDS011;41090;48.632;12.428;2022-09-17T10:08:21;2.97;;;1.83;;
55222;SDS011;41090;48.632;12.428;2022-09-17T10:13:21;2.60;;;1.53;;
55222;SDS011;41090;48.632;12.428;2022-09-17T10:15:46;2.23;;;1.57;;
55222;SDS011;41090;48.632;12.428;2022-09-17T10:18:22;1.80;;;1.67;;
55222;SDS011;41090;48.632;12.428;2022-09-17T10:20:55;1.63;;;1.40;;
55222;SDS011;41090;48.632;12.428;2022-09-17T10:23:23;2.67;;;1.40;;
55222;SDS011;41090;48.632;12.428;2022-09-17T10:25:50;1.90;;;1.70;;
55222;SDS011;41090;48.632;12.428;2022-09-17T10:31:04;2.63;;;1.63;;
55222;SDS011;41090;48.632;12.428;2022-09-17T10:33:33;2.73;;;2.10;;
55222;SDS011;41090;48.632;12.428;2022-09-17T10:36:08;3.87;;;2.10;;
55222;SDS011;41090;48.632;12.428;2022-09-17T10:38:40;2.87;;;2.17;;
55222;SDS011;41090;48.632;12.428;2022-09-17T10:43:37;3.53;;;2.80;;
55222;SDS011;41090;48.632;12.428;2022-09-17T10:46:02;3.27;;;2.70;;
55222;SDS011;41090;48.632;12.428;2022-09-17T10:48:32;3.50;;;2.17;;
55222;SDS011;41090;48.632;12.428;2022-09-17T10:51:02;3.40;;;1.80;;
55222;SDS011;41090;48.632;12.428;2022-09-17T10:53:31;3.73;;;2.30;;
55222;SDS011;41090;48.632;12.428;2022-09-17T10:58:41;2.40;;;1.90;;
55222;SDS011;41090;48.632;12.428;2022-09-17T11:01:23;3.33;;;2.23;;
55222;SDS011;41090;48.632;12.428;2022-09-17T11:14:19;1.53;;;1.43;;
55222;SDS011;41090;48.632;12.428;2022-09-17T11:21:42;2.10;;;1.90;;
55222;SDS011;41090;48.632;12.428;2022-09-17T11:26:45;2.60;;;1.70;;
55222;SDS011;41090;48.632;12.428;2022-09-17T11:31:48;1.70;;;1.50;;
55222;SDS011;41090;48.632;12.428;2022-09-17T11:39:38;1.70;;;1.60;;
55222;SDS011;41090;48.632;12.428;2022-09-17T11:42:07;3.60;;;2.70;;
55222;SDS011;41090;48.632;12.428;2022-09-17T11:47:10;3.00;;;1.93;;
55222;SDS011;41090;48.632;12.428;2022-09-17T11:49:42;3.20;;;1.73;;
55222;SDS011;41090;48.632;12.428;2022-09-17T11:52:13;4.10;;;1.63;;
55222;SDS011;41090;48.632;12.428;2022-09-17T11:55:17;2.03;;;1.70;;
55222;SDS011;41090;48.632;12.428;2022-09-17T11:57:34;7.47;;;2.03;;
55222;SDS011;41090;48.632;12.428;2022-09-17T12:00:05;3.27;;;1.80;;
55222;SDS011;41090;48.632;12.428;2022-09-17T12:15:34;4.93;;;2.10;;
55222;SDS011;41090;48.632;12.428;2022-09-17T12:18:14;5.00;;;2.10;;
55222;SDS011;41090;48.632;12.428;2022-09-17T12:20:41;4.63;;;2.03;;
55222;SDS011;41090;48.632;12.428;2022-09-17T12:23:13;6.17;;;2.20;;
55222;SDS011;41090;48.632;12.428;2022-09-17T12:25:44;6.30;;;2.50;;
55222;SDS011;41090;48.632;12.428;2022-09-17T12:28:20;5.13;;;2.43;;
55222;SDS011;41090;48.632;12.428;2022-09-17T12:30:50;7.37;;;2.60;;
55222;SDS011;41090;48.632;12.428;2022-09-17T12:33:52;4.63;;;2.10;;
55222;SDS011;41090;48.632;12.428;2022-09-17T12:36:23;5.90;;;2.40;;
55222;SDS011;41090;48.632;12.428;2022-09-17T12:49:25;5.67;;;2.43;;
55222;SDS011;41090;48.632;12.428;2022-09-17T12:51:57;6.37;;;2.17;;
55222;SDS011;41090;48.632;12.428;2022-09-17T12:59:48;5.03;;;2.53;;
55222;SDS011;41090;48.632;12.428;2022-09-17T13:02:14;5.30;;;2.23;;
55222;SDS011;41090;48.632;12.428;2022-09-17T13:12:06;6.83;;;2.97;;
55222;SDS011;41090;48.632;12.428;2022-09-17T13:17:04;10.07;;;2.90;;
55222;SDS011;41090;48.632;12.428;2022-09-17T13:22:15;10.70;;;7.00;;
55222;SDS011;41090;48.632;12.428;2022-09-17T13:24:42;6.27;;;3.50;;
55222;SDS011;41090;48.632;12.428;2022-09-17T13:27:24;6.10;;;2.83;;
55222;SDS011;41090;48.632;12.428;2022-09-17T13:34:56;5.80;;;2.63;;
55222;SDS011;41090;48.632;12.428;2022-09-17T13:37:22;6.60;;;2.40;;
55222;SDS011;41090;48.632;12.428;2022-09-17T13:39:49;4.87;;;2.40;;
55222;SDS011;41090;48.632;12.428;2022-09-17T13:45:00;5.43;;;2.70;;
55222;SDS011;41090;48.632;12.428;2022-09-17T13:47:27;3.47;;;2.20;;
55222;SDS011;41090;48.632;12.428;2022-09-17T13:49:56;4.43;;;1.90;;
55222;SDS011;41090;48.632;12.428;2022-09-17T13:54:57;4.40;;;2.47;;
55222;SDS011;41090;48.632;12.428;2022-09-17T13:57:22;7.27;;;2.70;;
55222;SDS011;41090;48.632;12.428;2022-09-17T13:59:56;4.60;;;2.03;;
55222;SDS011;41090;48.632;12.428;2022-09-17T14:02:29;3.70;;;1.97;;
55222;SDS011;41090;48.632;12.428;2022-09-17T14:04:55;6.33;;;4.30;;
55222;SDS011;41090;48.632;12.428;2022-09-17T14:10:00;3.90;;;2.83;;
55222;SDS011;41090;48.632;12.428;2022-09-17T14:13:16;4.73;;;2.90;;
55222;SDS011;41090;48.632;12.428;2022-09-17T14:15:33;3.80;;;1.80;;
55222;SDS011;41090;48.632;12.428;2022-09-17T14:17:58;3.20;;;1.80;;
55222;SDS011;41090;48.632;12.428;2022-09-17T14:20:23;5.13;;;2.63;;
55222;SDS011;41090;48.632;12.428;2022-09-17T14:22:58;3.73;;;2.13;;
55222;SDS011;41090;48.632;12.428;2022-09-17T14:25:57;3.20;;;2.07;;
55222;SDS011;41090;48.632;12.428;2022-09-17T14:31:17;3.83;;;2.50;;
55222;SDS011;41090;48.632;12.428;2022-09-17T14:33:42;4.47;;;2.57;;
55222;SDS011;41090;48.632;12.428;2022-09-17T14:36:09;4.03;;;2.40;;
55222;SDS011;41090;48.632;12.428;2022-09-17T14:38:45;4.90;;;2.20;;
55222;SDS011;41090;48.632;12.428;2022-09-17T14:46:19;4.33;;;1.90;;
55222;SDS011;41090;48.632;12.428;2022-09-17T14:48:45;5.70;;;1.80;;
55222;SDS011;41090;48.632;12.428;2022-09-17T14:53:43;2.93;;;1.90;;
55222;SDS011;41090;48.632;12.428;2022-09-17T14:56:10;2.27;;;1.90;;
55222;SDS011;41090;48.632;12.428;2022-09-17T14:58:39;2.20;;;1.90;;
55222;SDS011;41090;48.632;12.428;2022-09-17T15:01:05;2.20;;;2.00;;
55222;SDS011;41090;48.632;12.428;2022-09-17T15:03:40;3.50;;;2.50;;
55222;SDS011;41090;48.632;12.428;2022-09-17T15:06:12;2.13;;;2.00;;
55222;SDS011;41090;48.632;12.428;2022-09-17T15:08:44;3.20;;;2.10;;
55222;SDS011;41090;48.632;12.428;2022-09-17T15:11:09;2.27;;;1.90;;
55222;SDS011;41090;48.632;12.428;2022-09-17T15:13:36;3.13;;;1.93;;
55222;SDS011;41090;48.632;12.428;2022-09-17T15:16:18;1.77;;;1.67;;
55222;SDS011;41090;48.632;12.428;2022-09-17T15:18:48;2.80;;;2.50;;
55222;SDS011;41090;48.632;12.428;2022-09-17T15:21:20;2.33;;;2.13;;
55222;SDS011;41090;48.632;12.428;2022-09-17T15:23:47;2.20;;;1.70;;
55222;SDS011;41090;48.632;12.428;2022-09-17T15:26:14;2.07;;;1.80;;
55222;SDS011;41090;48.632;12.428;2022-09-17T15:28:40;2.10;;;1.57;;
55222;SDS011;41090;48.632;12.428;2022-09-17T15:31:09;2.23;;;1.80;;
55222;SDS011;41090;48.632;12.428;2022-09-17T15:33:37;3.37;;;2.00;;
55222;SDS011;41090;48.632;12.428;2022-09-17T15:36:25;2.37;;;1.97;;
55222;SDS011;41090;48.632;12.428;2022-09-17T15:38:51;3.80;;;2.40;;
55222;SDS011;41090;48.632;12.428;2022-09-17T15:43:42;2.00;;;1.80;;
55222;SDS011;41090;48.632;12.428;2022-09-17T15:46:41;2.03;;;1.67;;
55222;SDS011;41090;48.632;12.428;2022-09-17T15:49:00;2.30;;;2.10;;
55222;SDS011;41090;48.632;12.428;2022-09-17T15:51:30;2.70;;;2.00;;
55222;SDS011;41090;48.632;12.428;2022-09-17T15:53:59;3.20;;;1.90;;
55222;SDS011;41090;48.632;12.428;2022-09-17T15:56:25;3.07;;;1.90;;
55222;SDS011;41090;48.632;12.428;2022-09-17T15:59:02;4.27;;;2.10;;
55222;SDS011;41090;48.632;12.428;2022-09-17T16:08:58;2.63;;;2.00;;
55222;SDS011;41090;48.632;12.428;2022-09-17T16:11:25;3.40;;;2.17;;
55222;SDS011;41090;48.632;12.428;2022-09-17T16:13:52;1.83;;;1.57;;
55222;SDS011;41090;48.632;12.428;2022-09-17T16:16:21;3.17;;;2.30;;
55222;SDS011;41090;48.632;12.428;2022-09-17T16:18:47;2.20;;;2.00;;
55222;SDS011;41090;48.632;12.428;2022-09-17T16:21:13;2.83;;;2.40;;
55222;SDS011;41090;48.632;12.428;2022-09-17T16:23:38;3.03;;;2.00;;
55222;SDS011;41090;48.632;12.428;2022-09-17T16:26:04;3.20;;;2.20;;
55222;SDS011;41090;48.632;12.428;2022-09-17T16:28:30;3.33;;;2.60;;
55222;SDS011;41090;48.632;12.428;2022-09-17T16:30:55;2.90;;;2.60;;
55222;SDS011;41090;48.632;12.428;2022-09-17T16:33:20;3.73;;;2.40;;
55222;SDS011;41090;48.632;12.428;2022-09-17T16:35:55;4.07;;;3.10;;
55222;SDS011;41090;48.632;12.428;2022-09-17T16:38:20;3.70;;;2.40;;
55222;SDS011;41090;48.632;12.428;2022-09-17T16:40:46;3.57;;;2.10;;
55222;SDS011;41090;48.632;12.428;2022-09-17T16:43:11;3.90;;;2.67;;
55222;SDS011;41090;48.632;12.428;2022-09-17T16:45:36;8.53;;;7.20;;
55222;SDS011;41090;48.632;12.428;2022-09-17T16:48:02;4.50;;;4.10;;
55222;SDS011;41090;48.632;12.428;2022-09-17T16:50:28;2.47;;;2.07;;
55222;SDS011;41090;48.632;12.428;2022-09-17T16:55:22;2.80;;;2.37;;
55222;SDS011;41090;48.632;12.428;2022-09-17T16:57:48;6.57;;;3.30;;
55222;SDS011;41090;48.632;12.428;2022-09-17T17:00:20;6.20;;;3.77;;
55222;SDS011;41090;48.632;12.428;2022-09-17T17:02:56;4.17;;;2.67;;
55222;SDS011;41090;48.632;12.428;2022-09-17T17:05:22;2.70;;;2.20;;
55222;SDS011;41090;48.632;12.428;2022-09-17T17:08:01;4.90;;;2.57;;
55222;SDS011;41090;48.632;12.428;2022-09-17T17:10:27;4.43;;;2.33;;
55222;SDS011;41090;48.632;12.428;2022-09-17T17:12:52;2.13;;;1.60;;
55222;SDS011;41090;48.632;12.428;2022-09-17T17:15:18;2.77;;;2.00;;
55222;SDS011;41090;48.632;12.428;2022-09-17T17:17:44;2.67;;;2.30;;
55222;SDS011;41090;48.632;12.428;2022-09-17T17:20:10;4.93;;;3.00;;
55222;SDS011;41090;48.632;12.428;2022-09-17T17:22:37;3.67;;;2.63;;
55222;SDS011;41090;48.632;12.428;2022-09-17T17:25:03;3.60;;;3.03;;
55222;SDS011;41090;48.632;12.428;2022-09-17T17:27:29;4.10;;;2.60;;
55222;SDS011;41090;48.632;12.428;2022-09-17T17:29:55;5.03;;;2.70;;
55222;SDS011;41090;48.632;12.428;2022-09-17T17:32:20;5.93;;;3.10;;
55222;SDS011;41090;48.632;12.428;2022-09-17T17:34:46;3.97;;;2.73;;
55222;SDS011;41090;48.632;12.428;2022-09-17T17:37:11;4.40;;;2.90;;
55222;SDS011;41090;48.632;12.428;2022-09-17T17:39:38;5.43;;;2.97;;
55222;SDS011;41090;48.632;12.428;2022-09-17T17:42:03;5.03;;;3.10;;
55222;SDS011;41090;48.632;12.428;2022-09-17T17:44:29;5.00;;;2.60;;
55222;SDS011;41090;48.632;12.428;2022-09-17T17:46:54;4.10;;;2.70;;
55222;SDS011;41090;48.632;12.428;2022-09-17T17:49:19;4.67;;;2.33;;
55222;SDS011;41090;48.632;12.428;2022-09-17T17:51:46;3.20;;;2.40;;
55222;SDS011;41090;48.632;12.428;2022-09-17T17:54:11;4.80;;;2.47;;
55222;SDS011;41090;48.632;12.428;2022-09-17T17:56:36;5.43;;;2.40;;
55222;SDS011;41090;48.632;12.428;2022-09-17T17:59:02;4.00;;;2.50;;
55222;SDS011;41090;48.632;12.428;2022-09-17T18:01:28;4.43;;;2.37;;